Time;durP1;ratioP1;P1;durP2;ratioP2;P2;SDS_P1;SDS_P2;PMS_P1;PMS_P2;Temp;Humidity;BMP_temperature;BMP_pressure;BME280_temperature;BME280_humidity;BME280_pressure;Samples;Min_cycle;Max_cycle;Signal;HPM_P1;HPM_P2
2021/09/21 00:00:30;;;;;;;8.98;4.93;;;14.70;92.80;;;;;;4973836;28;20042;-70
2021/09/21 00:02:56;;;;;;;8.98;5.20;;;14.70;92.80;;;;;;4974223;28;20018;-70
2021/09/21 00:05:21;;;;;;;10.82;4.80;;;14.60;92.80;;;;;;4973631;28;20405;-71
2021/09/21 00:07:47;;;;;;;12.82;4.88;;;14.60;92.80;;;;;;4973533;28;20485;-70
2021/09/21 00:10:13;;;;;;;12.00;4.78;;;14.70;92.90;;;;;;4973924;28;20394;-70
2021/09/21 00:12:39;;;;;;;8.10;5.05;;;14.70;92.80;;;;;;4973457;28;20031;-70
2021/09/21 00:15:08;;;;;;;9.80;4.90;;;14.70;92.80;;;;;;4973149;28;20081;-70
2021/09/21 00:17:34;;;;;;;7.50;5.13;;;14.70;92.70;;;;;;4974015;28;20026;-70
2021/09/21 00:20:00;;;;;;;10.25;5.63;;;14.70;92.80;;;;;;4973636;28;20039;-70
2021/09/21 00:22:26;;;;;;;10.95;5.07;;;14.70;92.80;;;;;;4973588;28;20373;-71
2021/09/21 00:24:51;;;;;;;14.43;6.07;;;14.70;92.90;;;;;;4973492;28;20042;-71
2021/09/21 00:27:17;;;;;;;9.80;5.68;;;14.70;92.90;;;;;;4972658;28;20077;-71
2021/09/21 00:29:44;;;;;;;13.45;6.18;;;14.60;93.00;;;;;;4973745;28;20038;-70
2021/09/21 00:32:15;;;;;;;12.48;5.93;;;14.60;93.00;;;;;;4973462;28;20026;-71
2021/09/21 00:34:43;;;;;;;17.15;5.85;;;14.60;93.00;;;;;;4972352;28;20042;-71
2021/09/21 00:37:11;;;;;;;8.25;5.07;;;14.70;92.90;;;;;;4973419;28;20097;-71
2021/09/21 00:39:37;;;;;;;10.75;5.20;;;14.80;92.70;;;;;;4973423;28;20477;-71
2021/09/21 00:42:04;;;;;;;9.77;5.57;;;14.70;92.80;;;;;;4973353;28;20053;-71
2021/09/21 00:44:30;;;;;;;7.60;5.07;;;14.70;92.80;;;;;;4973636;28;20033;-71
2021/09/21 00:46:55;;;;;;;12.63;5.47;;;14.70;92.80;;;;;;4973356;28;20027;-70
2021/09/21 00:49:21;;;;;;;9.98;5.50;;;14.70;92.70;;;;;;4961290;28;20486;-71
2021/09/21 00:51:47;;;;;;;9.45;5.18;;;14.70;92.70;;;;;;4959954;28;20061;-71
2021/09/21 00:54:13;;;;;;;9.23;5.38;;;14.70;92.80;;;;;;4972989;28;20027;-70
2021/09/21 00:56:40;;;;;;;9.40;4.82;;;14.70;92.80;;;;;;4973441;28;20433;-70
2021/09/21 00:59:05;;;;;;;9.52;4.47;;;14.60;92.80;;;;;;4972973;28;20039;-71
2021/09/21 01:01:31;;;;;;;8.07;4.80;;;14.70;92.70;;;;;;4972654;28;20093;-70
2021/09/21 01:03:57;;;;;;;7.88;4.40;;;14.70;92.60;;;;;;4972764;28;20085;-71
2021/09/21 01:06:22;;;;;;;10.40;4.90;;;14.70;92.70;;;;;;4972625;28;20074;-71
2021/09/21 01:08:48;;;;;;;8.55;4.60;;;14.60;92.70;;;;;;4973000;28;20377;-71
2021/09/21 01:11:14;;;;;;;11.68;4.90;;;14.60;92.70;;;;;;4972692;28;20420;-71
2021/09/21 01:13:40;;;;;;;6.93;4.72;;;14.60;92.70;;;;;;4972703;28;20069;-71
2021/09/21 01:16:07;;;;;;;7.43;4.43;;;14.60;92.50;;;;;;4972708;28;20338;-71
2021/09/21 01:18:32;;;;;;;10.85;4.60;;;14.50;92.70;;;;;;4972578;28;20042;-72
2021/09/21 01:21:07;;;;;;;6.82;4.88;;;14.50;92.70;;;;;;4973038;28;20457;-71
2021/09/21 01:23:49;;;;;;;10.43;4.28;;;14.50;92.70;;;;;;4972622;28;20232;-71
2021/09/21 01:26:16;;;;;;;10.63;5.13;;;14.40;92.70;;;;;;4971866;28;20034;-71
2021/09/21 01:28:42;;;;;;;12.00;5.03;;;14.40;92.70;;;;;;4972651;28;20169;-71
2021/09/21 01:31:08;;;;;;;9.23;4.95;;;14.40;92.60;;;;;;4972598;28;20034;-71
2021/09/21 01:33:33;;;;;;;10.20;4.38;;;14.40;92.70;;;;;;4972579;28;20472;-72
2021/09/21 01:35:59;;;;;;;12.30;4.50;;;14.40;92.70;;;;;;4982322;28;20037;-71
2021/09/21 01:38:25;;;;;;;6.30;4.75;;;14.40;92.70;;;;;;4991837;28;20488;-71
2021/09/21 01:40:51;;;;;;;8.75;4.20;;;14.30;92.80;;;;;;4991802;28;20365;-70
2021/09/21 01:43:17;;;;;;;7.25;4.07;;;14.30;92.60;;;;;;4991843;28;20246;-71
2021/09/21 01:45:42;;;;;;;9.48;4.65;;;14.40;92.50;;;;;;4990841;28;20077;-70
2021/09/21 01:48:07;;;;;;;12.13;4.35;;;14.30;92.60;;;;;;4991898;28;20045;-70
2021/09/21 01:53:32;;;;;;;8.23;5.00;;;14.30;92.70;;;;;;4991908;28;20038;-71
2021/09/21 02:01:22;;;;;;;7.13;5.07;;;14.30;92.60;;;;;;4991778;28;20081;-71
2021/09/21 02:03:49;;;;;;;8.45;4.53;;;14.30;92.60;;;;;;4991428;28;20039;-71
2021/09/21 02:06:15;;;;;;;9.30;4.72;;;14.20;92.60;;;;;;4990591;28;20030;-71
2021/09/21 02:08:41;;;;;;;6.95;4.18;;;14.10;92.60;;;;;;4991868;28;20125;-70
2021/09/21 02:11:07;;;;;;;7.47;4.55;;;14.20;92.60;;;;;;4991538;28;20168;-70
2021/09/21 02:13:33;;;;;;;7.95;4.78;;;14.20;92.60;;;;;;4991667;28;20491;-70
2021/09/21 02:15:58;;;;;;;7.10;4.20;;;14.20;92.60;;;;;;4991462;28;20030;-70
2021/09/21 02:18:24;;;;;;;8.55;4.32;;;14.20;92.50;;;;;;4991517;28;20026;-71
2021/09/21 02:20:50;;;;;;;11.48;4.72;;;14.20;92.50;;;;;;4990948;28;20038;-71
2021/09/21 02:23:15;;;;;;;7.22;4.30;;;14.10;92.40;;;;;;4991541;28;20161;-71
2021/09/21 02:25:41;;;;;;;8.30;4.70;;;14.10;92.50;;;;;;4990191;28;20357;-71
2021/09/21 02:28:07;;;;;;;10.27;4.78;;;14.10;92.50;;;;;;4991453;28;20096;-71
2021/09/21 02:30:32;;;;;;;7.90;4.53;;;14.10;92.50;;;;;;4991348;28;20109;-71
2021/09/21 02:32:58;;;;;;;8.13;5.30;;;14.00;92.70;;;;;;4990708;28;20042;-71
2021/09/21 02:35:25;;;;;;;7.50;4.70;;;14.00;92.70;;;;;;4991340;28;20030;-70
2021/09/21 02:37:51;;;;;;;10.02;5.43;;;13.80;93.10;;;;;;4994149;28;20042;-70
2021/09/21 02:40:17;;;;;;;10.45;5.28;;;13.70;93.40;;;;;;4995087;28;20038;-72
2021/09/21 02:42:42;;;;;;;8.48;5.10;;;13.60;93.50;;;;;;4994936;28;20038;-72
2021/09/21 02:45:09;;;;;;;10.77;4.93;;;13.40;93.50;;;;;;4994662;28;20041;-72
2021/09/21 02:47:34;;;;;;;8.93;5.15;;;13.40;93.70;;;;;;4995317;28;20029;-70
2021/09/21 02:50:00;;;;;;;8.05;5.03;;;13.30;93.80;;;;;;4994804;28;20114;-70
2021/09/21 02:52:26;;;;;;;7.57;5.10;;;13.20;94.00;;;;;;4994933;28;20372;-71
2021/09/21 02:54:52;;;;;;;11.43;5.20;;;13.10;94.00;;;;;;4993680;28;20138;-70
2021/09/21 02:57:18;;;;;;;8.02;5.07;;;13.10;94.10;;;;;;4994478;28;20396;-70
2021/09/21 02:59:44;;;;;;;11.25;5.70;;;13.10;94.30;;;;;;4993882;28;20030;-70
2021/09/21 03:02:09;;;;;;;7.95;4.65;;;13.00;94.30;;;;;;4994356;28;20056;-72
2021/09/21 03:04:39;;;;;;;10.55;5.72;;;13.10;94.30;;;;;;4994103;28;20096;-70
2021/09/21 03:07:08;;;;;;;9.70;5.88;;;13.00;94.30;;;;;;4994379;28;20372;-70
2021/09/21 03:09:51;;;;;;;9.70;5.07;;;12.90;94.40;;;;;;4994088;28;20050;-70
2021/09/21 03:12:27;;;;;;;11.10;5.15;;;12.90;94.50;;;;;;4994311;28;20033;-71
2021/09/21 03:17:37;;;;;;;10.63;6.10;;;12.90;94.50;;;;;;4994268;28;20168;-71
2021/09/21 03:20:03;;;;;;;9.32;5.90;;;12.90;94.50;;;;;;4994133;28;20038;-71
2021/09/21 03:22:29;;;;;;;8.40;5.80;;;13.00;94.40;;;;;;4993833;28;20034;-71
2021/09/21 03:24:56;;;;;;;10.85;6.03;;;12.90;94.50;;;;;;4994104;28;20042;-71
2021/09/21 03:27:22;;;;;;;14.90;7.10;;;12.90;94.60;;;;;;4994006;28;20034;-71
2021/09/21 03:29:48;;;;;;;10.70;5.95;;;12.90;94.60;;;;;;4994400;28;20026;-70
2021/09/21 03:32:14;;;;;;;10.35;5.65;;;12.90;94.50;;;;;;4993925;28;20061;-71
2021/09/21 03:34:40;;;;;;;10.18;6.03;;;12.90;94.70;;;;;;4993885;28;20031;-71
2021/09/21 03:37:10;;;;;;;11.18;5.80;;;12.80;94.50;;;;;;4984998;28;20031;-70
2021/09/21 03:39:37;;;;;;;12.27;6.63;;;12.80;94.60;;;;;;4978967;28;20035;-71
2021/09/21 03:42:03;;;;;;;11.88;6.07;;;12.80;94.70;;;;;;4993608;28;20030;-71
2021/09/21 03:44:29;;;;;;;13.05;6.03;;;12.70;94.70;;;;;;4993941;28;20026;-71
2021/09/21 03:46:55;;;;;;;13.63;6.18;;;12.70;94.70;;;;;;4992542;28;20100;-71
2021/09/21 03:49:22;;;;;;;9.27;5.57;;;12.70;94.80;;;;;;4992946;28;20057;-71
2021/09/21 03:51:48;;;;;;;11.05;6.35;;;12.70;94.70;;;;;;4993657;28;20121;-71
2021/09/21 03:54:14;;;;;;;12.30;6.78;;;12.70;94.70;;;;;;4992186;28;20053;-71
2021/09/21 03:56:40;;;;;;;14.35;6.57;;;12.80;94.60;;;;;;4994200;28;20368;-71
2021/09/21 03:59:06;;;;;;;11.75;6.55;;;12.80;94.60;;;;;;4993539;28;20030;-72
2021/09/21 04:01:33;;;;;;;11.40;6.50;;;12.80;94.70;;;;;;4993711;28;20153;-72
2021/09/21 04:03:59;;;;;;;12.10;6.43;;;12.80;94.60;;;;;;4993329;28;20074;-71
2021/09/21 04:06:26;;;;;;;9.50;6.00;;;12.80;94.60;;;;;;4993188;28;20073;-72
2021/09/21 04:08:53;;;;;;;14.27;7.35;;;12.80;94.60;;;;;;4993456;28;20057;-72
2021/09/21 04:11:20;;;;;;;13.77;7.40;;;12.80;94.60;;;;;;4993124;28;20034;-71
2021/09/21 04:13:45;;;;;;;11.48;6.60;;;12.80;94.70;;;;;;4993068;28;20103;-71
2021/09/21 04:16:11;;;;;;;13.73;6.72;;;12.80;94.50;;;;;;4993002;28;20532;-71
2021/09/21 04:18:37;;;;;;;11.48;6.75;;;12.90;94.60;;;;;;4992973;28;20042;-71
2021/09/21 04:21:03;;;;;;;11.05;6.97;;;12.90;94.60;;;;;;4993040;28;20030;-71
2021/09/21 04:23:28;;;;;;;12.00;6.32;;;12.90;94.70;;;;;;4993474;28;20031;-71
2021/09/21 04:25:54;;;;;;;16.15;7.40;;;12.80;94.70;;;;;;4992904;28;20345;-72
2021/09/21 04:28:20;;;;;;;13.32;6.85;;;12.80;94.70;;;;;;4992802;28;20096;-71
2021/09/21 04:30:48;;;;;;;9.95;6.50;;;12.90;94.80;;;;;;4992900;28;20062;-72
2021/09/21 04:33:14;;;;;;;11.55;6.38;;;12.80;94.70;;;;;;4992797;28;20022;-70
2021/09/21 04:35:40;;;;;;;14.30;7.05;;;12.80;94.80;;;;;;4993277;28;20049;-70
2021/09/21 04:38:07;;;;;;;16.13;6.63;;;12.90;94.70;;;;;;4992722;28;20523;-71
2021/09/21 04:40:32;;;;;;;13.30;6.97;;;12.90;94.70;;;;;;4992775;28;20469;-70
2021/09/21 04:42:58;;;;;;;14.32;7.00;;;12.90;94.90;;;;;;4992607;28;20037;-70
2021/09/21 04:45:23;;;;;;;13.10;7.18;;;12.90;94.90;;;;;;4992505;28;20042;-72
2021/09/21 04:47:49;;;;;;;13.43;6.90;;;12.90;94.90;;;;;;4992880;28;20061;-72
2021/09/21 04:50:15;;;;;;;14.85;7.55;;;13.00;95.00;;;;;;4992602;28;20034;-72
2021/09/21 04:52:40;;;;;;;11.85;6.75;;;13.00;95.10;;;;;;4992487;28;20041;-70
2021/09/21 04:55:08;;;;;;;12.45;6.38;;;13.00;95.10;;;;;;4992471;28;20427;-72
2021/09/21 04:57:33;;;;;;;18.13;6.90;;;13.00;95.10;;;;;;4992473;28;20037;-71
2021/09/21 04:59:59;;;;;;;13.70;7.60;;;13.00;95.00;;;;;;4992321;28;20536;-70
2021/09/21 05:02:25;;;;;;;15.52;6.13;;;13.00;94.90;;;;;;4992156;28;20034;-71
2021/09/21 05:04:50;;;;;;;11.13;6.57;;;13.10;94.80;;;;;;4991348;28;20038;-71
2021/09/21 05:07:16;;;;;;;11.40;6.35;;;13.10;94.90;;;;;;4991251;28;20034;-71
2021/09/21 05:09:41;;;;;;;18.05;7.07;;;13.20;94.70;;;;;;4991265;28;20042;-71
2021/09/21 05:12:07;;;;;;;13.88;7.13;;;13.20;94.60;;;;;;4991271;28;20092;-71
2021/09/21 05:14:33;;;;;;;11.38;6.57;;;13.30;94.50;;;;;;4991820;28;20022;-71
2021/09/21 05:16:59;;;;;;;13.15;6.57;;;13.20;94.40;;;;;;4991381;28;20056;-71
2021/09/21 05:19:25;;;;;;;16.33;7.18;;;13.20;94.40;;;;;;4990276;28;20065;-71
2021/09/21 05:21:50;;;;;;;13.90;7.18;;;13.20;94.40;;;;;;4991232;28;20491;-70
2021/09/21 05:24:16;;;;;;;11.35;6.13;;;13.20;94.40;;;;;;4991488;28;20029;-71
2021/09/21 05:26:42;;;;;;;12.73;7.18;;;13.20;94.40;;;;;;4991660;28;20037;-71
2021/09/21 05:29:08;;;;;;;12.95;6.68;;;13.20;94.40;;;;;;4981463;28;20106;-70
2021/09/21 05:31:33;;;;;;;13.23;6.90;;;13.20;94.30;;;;;;4970881;28;20035;-71
2021/09/21 05:34:00;;;;;;;13.45;7.38;;;13.20;94.30;;;;;;4971732;28;20034;-71
2021/09/21 05:36:25;;;;;;;13.07;6.95;;;13.20;94.20;;;;;;4972349;28;20039;-70
2021/09/21 05:38:51;;;;;;;13.82;7.88;;;13.30;94.30;;;;;;4972747;28;20465;-71
2021/09/21 05:41:17;;;;;;;14.07;6.00;;;13.20;94.20;;;;;;4972218;28;20357;-71
2021/09/21 05:43:43;;;;;;;12.95;6.60;;;13.20;94.10;;;;;;4972349;28;20034;-71
2021/09/21 05:46:09;;;;;;;14.20;6.82;;;13.20;94.10;;;;;;4971877;28;20046;-71
2021/09/21 05:48:34;;;;;;;12.13;6.15;;;13.20;94.10;;;;;;4972314;28;20082;-71
2021/09/21 05:51:00;;;;;;;14.57;7.63;;;13.20;94.10;;;;;;4972188;28;20031;-70
2021/09/21 05:53:25;;;;;;;11.85;6.97;;;13.30;94.10;;;;;;4972144;28;20050;-71
2021/09/21 05:55:52;;;;;;;16.60;7.53;;;13.30;94.10;;;;;;4970881;28;20540;-72
2021/09/21 05:58:17;;;;;;;11.80;7.38;;;13.30;94.00;;;;;;4972012;28;20105;-72
2021/09/21 06:00:43;;;;;;;11.73;7.15;;;13.30;93.90;;;;;;4972134;28;20039;-70
2021/09/21 06:03:09;;;;;;;36.03;8.90;;;13.20;93.90;;;;;;4972146;28;20023;-70
2021/09/21 06:05:34;;;;;;;19.27;7.63;;;13.30;94.20;;;;;;4971284;28;20030;-71
2021/09/21 06:08:00;;;;;;;14.32;7.13;;;13.30;94.40;;;;;;4971698;28;20121;-72
2021/09/21 06:10:27;;;;;;;13.57;7.28;;;13.30;94.40;;;;;;4971835;28;20118;-72
2021/09/21 06:12:52;;;;;;;15.57;7.65;;;13.40;94.40;;;;;;4974771;28;20465;-71
2021/09/21 06:15:20;;;;;;;13.27;7.53;;;13.30;94.30;;;;;;4974853;28;20037;-71
2021/09/21 06:17:47;;;;;;;14.15;7.35;;;13.30;94.30;;;;;;4976718;28;20018;-70
2021/09/21 06:20:14;;;;;;;17.45;7.78;;;13.40;94.40;;;;;;4975635;28;20039;-71
2021/09/21 06:22:42;;;;;;;15.73;7.85;;;13.40;94.30;;;;;;4975570;28;20113;-71
2021/09/21 06:25:09;;;;;;;18.38;7.68;;;13.40;94.30;;;;;;4974921;28;20062;-70
2021/09/21 06:27:35;;;;;;;15.93;7.50;;;13.40;94.20;;;;;;4974712;28;20424;-71
2021/09/21 06:30:03;;;;;;;16.60;7.63;;;13.50;94.60;;;;;;4974191;28;20027;-71
2021/09/21 06:32:29;;;;;;;18.23;7.13;;;13.50;94.20;;;;;;4975965;28;20082;-71
2021/09/21 06:34:54;;;;;;;14.98;7.15;;;13.60;94.20;;;;;;4975518;28;20426;-71
2021/09/21 06:37:20;;;;;;;16.40;8.63;;;13.60;94.20;;;;;;4975289;28;20030;-71
2021/09/21 06:39:46;;;;;;;17.08;8.38;;;13.70;94.00;;;;;;4975378;28;20027;-71
2021/09/21 06:42:11;;;;;;;13.27;7.55;;;13.80;93.90;;;;;;4975115;28;20084;-71
2021/09/21 06:44:37;;;;;;;15.05;7.88;;;13.80;93.90;;;;;;4975846;28;20132;-71
2021/09/21 06:47:04;;;;;;;16.05;7.18;;;13.80;93.80;;;;;;4975306;28;20173;-71
2021/09/21 06:49:30;;;;;;;15.60;7.95;;;13.80;94.00;;;;;;4974927;28;20038;-71
2021/09/21 06:51:56;;;;;;;20.85;10.75;;;13.70;93.60;;;;;;4974907;28;20027;-72
2021/09/21 06:54:22;;;;;;;23.17;10.73;;;13.70;93.90;;;;;;4974936;28;20057;-70
2021/09/21 06:56:47;;;;;;;13.95;7.22;;;13.80;93.80;;;;;;4975252;28;20449;-70
2021/09/21 06:59:13;;;;;;;12.73;7.30;;;13.80;93.70;;;;;;4974980;28;20425;-72
2021/09/21 07:01:39;;;;;;;10.68;6.50;;;13.90;93.60;;;;;;4974775;28;20031;-70
2021/09/21 07:04:04;;;;;;;20.17;7.80;;;13.90;93.60;;;;;;4974859;28;20162;-71
2021/09/21 07:06:30;;;;;;;15.05;7.55;;;13.80;93.40;;;;;;4974771;28;20053;-72
2021/09/21 07:08:55;;;;;;;16.17;8.90;;;13.90;93.50;;;;;;4975046;28;20349;-70
2021/09/21 07:11:21;;;;;;;16.05;8.13;;;14.00;93.40;;;;;;4974528;28;20097;-71
2021/09/21 07:13:47;;;;;;;15.02;7.40;;;14.10;93.30;;;;;;4974697;28;20097;-71
2021/09/21 07:16:13;;;;;;;16.00;7.00;;;14.10;93.20;;;;;;4974541;28;20030;-71
2021/09/21 07:18:39;;;;;;;14.25;7.70;;;14.10;93.20;;;;;;4974761;28;20473;-71
2021/09/21 07:21:05;;;;;;;15.68;7.68;;;14.10;93.50;;;;;;4974319;28;20039;-70
2021/09/21 07:23:32;;;;;;;17.30;7.30;;;14.20;93.30;;;;;;4973523;28;20030;-71
2021/09/21 07:25:57;;;;;;;16.65;7.95;;;14.20;93.10;;;;;;4974298;28;20039;-71
2021/09/21 07:28:23;;;;;;;14.05;8.00;;;14.30;92.90;;;;;;4974305;28;20054;-71
2021/09/21 07:30:49;;;;;;;15.20;7.93;;;14.30;92.90;;;;;;4974232;28;20113;-71
2021/09/21 07:33:16;;;;;;;14.95;7.88;;;14.20;92.70;;;;;;4974323;28;20065;-72
2021/09/21 07:35:42;;;;;;;12.98;7.20;;;14.20;92.80;;;;;;4974606;28;20022;-70
2021/09/21 07:38:08;;;;;;;16.63;7.45;;;14.20;92.70;;;;;;4974339;28;20065;-72
2021/09/21 07:40:35;;;;;;;13.52;7.85;;;14.20;92.80;;;;;;4973071;28;20038;-70
2021/09/21 07:43:03;;;;;;;13.07;7.22;;;14.20;92.70;;;;;;4974230;28;20034;-70
2021/09/21 07:45:28;;;;;;;14.43;7.10;;;14.20;92.90;;;;;;4973826;28;20122;-71
2021/09/21 07:47:54;;;;;;;13.07;6.70;;;14.20;92.80;;;;;;4974055;28;20114;-70
2021/09/21 07:50:20;;;;;;;11.18;6.35;;;14.20;93.10;;;;;;4973612;28;20038;-69
2021/09/21 07:52:47;;;;;;;13.18;7.07;;;14.40;93.10;;;;;;4973929;28;20500;-69
2021/09/21 07:55:15;;;;;;;13.63;7.18;;;14.40;92.80;;;;;;4973695;28;20043;-70
2021/09/21 07:57:41;;;;;;;17.83;8.30;;;14.40;92.60;;;;;;4973712;28;20080;-69
2021/09/21 08:00:08;;;;;;;17.48;7.75;;;14.40;92.70;;;;;;4973800;28;20031;-69
2021/09/21 08:02:34;;;;;;;11.80;6.82;;;14.40;92.70;;;;;;4974288;28;20019;-69
2021/09/21 08:05:00;;;;;;;14.45;7.13;;;14.50;92.80;;;;;;4973736;28;20101;-69
2021/09/21 08:07:28;;;;;;;16.92;7.78;;;14.50;92.80;;;;;;4972341;28;20089;-70
2021/09/21 08:09:58;;;;;;;17.30;6.40;;;14.50;92.80;;;;;;4973300;28;20083;-68
2021/09/21 08:12:29;;;;;;;16.85;6.80;;;14.60;92.70;;;;;;4973137;28;20065;-69
2021/09/21 08:14:55;;;;;;;16.67;7.45;;;14.70;92.40;;;;;;4973983;28;20026;-70
2021/09/21 08:17:22;;;;;;;16.55;6.60;;;14.70;92.20;;;;;;4973422;28;20039;-68
2021/09/21 08:19:49;;;;;;;13.90;7.07;;;14.70;92.20;;;;;;4973560;28;20058;-70
2021/09/21 08:22:16;;;;;;;14.38;6.93;;;14.80;92.10;;;;;;4973540;28;20061;-68
2021/09/21 08:24:42;;;;;;;13.52;6.85;;;15.00;92.20;;;;;;4973077;28;20042;-68
2021/09/21 08:27:07;;;;;;;13.65;7.28;;;15.10;92.00;;;;;;4973336;28;20030;-69
2021/09/21 08:29:33;;;;;;;11.93;6.90;;;15.20;91.90;;;;;;4973788;28;20132;-68
2021/09/21 08:31:59;;;;;;;23.73;9.73;;;15.40;91.80;;;;;;4973441;28;20357;-68
2021/09/21 08:34:26;;;;;;;14.45;7.75;;;15.40;91.80;;;;;;4972718;28;20335;-69
2021/09/21 08:36:51;;;;;;;15.60;8.45;;;15.50;91.60;;;;;;4973284;28;20113;-68
2021/09/21 08:39:18;;;;;;;11.02;7.22;;;15.60;91.50;;;;;;4972936;28;20022;-69
2021/09/21 08:41:44;;;;;;;11.20;6.10;;;15.60;91.20;;;;;;4972272;28;20023;-69
2021/09/21 08:44:10;;;;;;;14.00;6.30;;;15.60;91.20;;;;;;4973035;28;20528;-67
2021/09/21 08:46:36;;;;;;;10.55;5.65;;;15.70;91.20;;;;;;4972844;28;20050;-68
2021/09/21 08:49:02;;;;;;;20.25;7.53;;;15.70;91.00;;;;;;4972052;28;20039;-69
2021/09/21 08:51:28;;;;;;;11.85;6.30;;;15.80;90.70;;;;;;4972830;28;20045;-69
2021/09/21 08:53:54;;;;;;;9.63;5.43;;;15.80;90.40;;;;;;4972057;28;20117;-69
2021/09/21 08:56:20;;;;;;;10.90;5.18;;;15.80;90.00;;;;;;4972915;28;20027;-69
2021/09/21 08:59:00;;;;;;;17.95;5.95;;;15.80;90.30;;;;;;4972646;28;20342;-69
2021/09/21 09:01:37;;;;;;;10.50;5.38;;;15.90;90.10;;;;;;4972612;28;20038;-69
2021/09/21 09:04:03;;;;;;;11.80;5.28;;;15.90;89.70;;;;;;4972655;28;20154;-68
2021/09/21 09:06:28;;;;;;;11.00;5.47;;;16.00;89.90;;;;;;4972410;28;20043;-69
2021/09/21 09:08:54;;;;;;;19.75;6.80;;;16.00;89.10;;;;;;4971711;28;20086;-69
2021/09/21 09:11:22;;;;;;;11.68;5.38;;;16.10;89.50;;;;;;4972389;28;20031;-68
2021/09/21 09:13:58;;;;;;;13.95;5.32;;;16.10;88.80;;;;;;4972496;28;20373;-68
2021/09/21 09:16:27;;;;;;;10.80;5.15;;;15.90;88.80;;;;;;4972056;28;20642;-69
2021/09/21 09:19:09;;;;;;;10.73;5.13;;;15.90;89.30;;;;;;4972430;28;20046;-68
2021/09/21 09:21:41;;;;;;;11.88;4.70;;;15.90;88.30;;;;;;4972424;28;20114;-70
2021/09/21 09:24:09;;;;;;;8.43;4.82;;;16.00;88.30;;;;;;4972308;28;20027;-69
2021/09/21 09:26:38;;;;;;;13.18;5.40;;;16.10;88.10;;;;;;4971643;28;20038;-69
2021/09/21 09:29:07;;;;;;;9.93;5.28;;;16.30;88.70;;;;;;4972354;28;20031;-68
2021/09/21 09:31:35;;;;;;;10.25;6.00;;;16.20;87.90;;;;;;4972083;28;20023;-68
2021/09/21 09:34:24;;;;;;;9.93;5.90;;;16.30;88.60;;;;;;4971933;28;20031;-69
2021/09/21 09:36:55;;;;;;;10.80;4.47;;;16.30;87.30;;;;;;4971160;28;20062;-69
2021/09/21 09:39:24;;;;;;;9.27;4.63;;;16.30;87.40;;;;;;4972202;28;20096;-69
2021/09/21 09:41:52;;;;;;;9.13;4.88;;;16.20;87.20;;;;;;4972832;28;20085;-69
2021/09/21 09:44:22;;;;;;;13.82;5.00;;;16.30;87.00;;;;;;4972476;28;20365;-69
2021/09/21 09:46:54;;;;;;;8.95;5.82;;;16.40;87.70;;;;;;4973274;28;20055;-69
2021/09/21 09:49:26;;;;;;;10.10;4.68;;;16.50;87.70;;;;;;4976258;28;20035;-69
2021/09/21 09:51:53;;;;;;;7.65;4.43;;;16.60;87.60;;;;;;4975182;28;20101;-69
2021/09/21 09:54:19;;;;;;;7.93;4.37;;;16.60;86.60;;;;;;4976211;28;20054;-69
2021/09/21 09:56:46;;;;;;;6.32;3.85;;;16.60;86.90;;;;;;4976567;28;20500;-69
2021/09/21 09:59:17;;;;;;;8.02;4.18;;;16.40;85.80;;;;;;4976185;28;20035;-69
2021/09/21 10:01:44;;;;;;;13.07;5.03;;;16.50;85.80;;;;;;4976060;28;20544;-69
2021/09/21 10:04:13;;;;;;;9.55;4.90;;;16.50;85.30;;;;;;4975795;28;20039;-71
2021/09/21 10:06:39;;;;;;;9.45;4.50;;;16.50;85.00;;;;;;4975536;28;20572;-71
2021/09/21 10:09:05;;;;;;;8.25;4.43;;;16.50;85.30;;;;;;4975857;28;20050;-72
2021/09/21 10:11:32;;;;;;;6.82;3.50;;;16.50;85.40;;;;;;4976215;28;20404;-72
2021/09/21 10:13:59;;;;;;;9.02;4.43;;;16.40;85.00;;;;;;4975420;28;20034;-71
2021/09/21 10:16:25;;;;;;;8.13;4.53;;;16.40;85.00;;;;;;4975815;28;20045;-71
2021/09/21 10:18:59;;;;;;;8.90;4.15;;;16.30;85.10;;;;;;4975418;28;20063;-72
2021/09/21 10:21:36;;;;;;;8.82;4.55;;;16.40;85.40;;;;;;4975448;28;20030;-70
2021/09/21 10:24:04;;;;;;;10.77;4.65;;;16.40;85.40;;;;;;4975583;28;20117;-71
2021/09/21 10:26:32;;;;;;;9.48;5.00;;;16.40;85.50;;;;;;4975756;28;20397;-71
2021/09/21 10:28:59;;;;;;;9.05;5.07;;;16.50;86.40;;;;;;4975437;28;20063;-71
2021/09/21 10:31:26;;;;;;;8.85;4.50;;;16.50;85.50;;;;;;4975420;28;20528;-71
2021/09/21 10:33:52;;;;;;;6.93;4.40;;;16.50;85.70;;;;;;4975196;28;20041;-71
2021/09/21 10:36:31;;;;;;;10.70;5.25;;;16.70;86.20;;;;;;4975270;28;20035;-72
2021/09/21 10:39:11;;;;;;;9.27;4.78;;;16.80;85.70;;;;;;4975765;28;20109;-72
2021/09/21 10:41:45;;;;;;;8.40;5.00;;;16.60;84.70;;;;;;4975229;28;20061;-72
2021/09/21 10:44:11;;;;;;;11.43;4.72;;;16.60;85.00;;;;;;4975237;28;20087;-71
2021/09/21 10:46:48;;;;;;;7.03;4.30;;;16.70;85.70;;;;;;4974872;28;20047;-71
2021/09/21 10:49:29;;;;;;;11.50;5.88;;;16.70;84.30;;;;;;4974954;28;20514;-71
2021/09/21 10:52:06;;;;;;;7.22;4.60;;;16.60;83.90;;;;;;4974759;28;20070;-73
2021/09/21 10:54:44;;;;;;;10.23;4.95;;;16.60;83.80;;;;;;4974763;28;20053;-72
2021/09/21 10:57:27;;;;;;;8.10;4.97;;;16.70;83.80;;;;;;4974603;28;20026;-72
2021/09/21 10:59:59;;;;;;;9.85;5.20;;;16.80;84.60;;;;;;4975455;28;20253;-72
2021/09/21 11:02:31;;;;;;;11.57;5.20;;;16.90;83.40;;;;;;4974861;28;20039;-71
2021/09/21 11:04:58;;;;;;;10.23;5.05;;;16.80;82.60;;;;;;4974797;28;20049;-71
2021/09/21 11:07:24;;;;;;;8.87;5.13;;;16.90;83.10;;;;;;4974975;28;20384;-71
2021/09/21 11:09:52;;;;;;;10.50;5.45;;;16.90;81.80;;;;;;4974842;28;20340;-71
2021/09/21 11:12:20;;;;;;;;;;;16.90;82.30;;;;;;4973979;28;20488;-71
2021/09/21 11:14:47;;;;;;;8.25;5.00;;;16.80;81.80;;;;;;4974857;28;20295;-71
2021/09/21 11:17:13;;;;;;;8.00;4.35;;;16.80;81.90;;;;;;4974691;28;20049;-71
2021/09/21 11:19:40;;;;;;;8.65;5.22;;;16.80;81.30;;;;;;4974702;28;20027;-71
2021/09/21 11:22:15;;;;;;;11.05;4.95;;;16.80;81.60;;;;;;4974808;28;20035;-71
2021/09/21 11:24:41;;;;;;;12.75;5.35;;;16.70;81.50;;;;;;4974403;28;20038;-72
2021/09/21 11:27:08;;;;;;;13.27;4.40;;;16.70;81.10;;;;;;4974514;28;20031;-71
2021/09/21 11:29:39;;;;;;;6.65;4.32;;;16.70;80.80;;;;;;4973882;28;20035;-71
2021/09/21 11:32:34;;;;;;;7.35;3.75;;;16.60;80.30;;;;;;4974591;28;20034;-71
2021/09/21 11:35:08;;;;;;;9.63;4.22;;;16.60;80.60;;;;;;4958016;28;20039;-71
2021/09/21 11:37:34;;;;;;;6.63;3.70;;;16.50;80.50;;;;;;4967531;28;20495;-70
2021/09/21 11:40:00;;;;;;;9.50;3.72;;;16.50;80.70;;;;;;4974498;28;20469;-71
2021/09/21 11:42:32;;;;;;;8.45;4.18;;;16.40;81.00;;;;;;4974376;28;20093;-71
2021/09/21 11:45:11;;;;;;;5.78;4.22;;;16.40;81.00;;;;;;4973595;28;20031;-71
2021/09/21 11:47:41;;;;;;;8.32;4.47;;;16.20;81.20;;;;;;4974223;28;20043;-72
2021/09/21 11:50:12;;;;;;;11.38;4.68;;;16.30;81.70;;;;;;4974344;28;20724;-72
2021/09/21 11:52:40;;;;;;;7.00;4.38;;;16.40;81.90;;;;;;4974088;28;20043;-72
2021/09/21 11:55:11;;;;;;;18.50;5.20;;;16.50;82.10;;;;;;4973788;28;20042;-71
2021/09/21 11:57:37;;;;;;;13.25;8.55;;;16.50;81.80;;;;;;4972984;28;20428;-69
2021/09/21 12:00:04;;;;;;;10.73;6.30;;;16.60;81.80;;;;;;4973915;28;20033;-69
2021/09/21 12:02:34;;;;;;;8.88;4.88;;;16.70;82.10;;;;;;4973172;28;20290;-68
2021/09/21 12:05:00;;;;;;;9.85;4.72;;;16.70;82.10;;;;;;4973484;28;20031;-69
2021/09/21 12:07:26;;;;;;;6.50;4.18;;;16.70;81.80;;;;;;4973494;28;20039;-69
2021/09/21 12:09:53;;;;;;;9.43;4.78;;;16.70;82.10;;;;;;4973002;28;20039;-68
2021/09/21 12:12:21;;;;;;;7.95;4.30;;;16.70;82.40;;;;;;4973515;28;20029;-69
2021/09/21 12:15:00;;;;;;;9.77;4.68;;;16.80;82.10;;;;;;4974014;28;20481;-69
2021/09/21 12:17:27;;;;;;;10.77;5.43;;;16.90;82.70;;;;;;4973595;28;20037;-69
2021/09/21 12:20:00;;;;;;;10.93;6.55;;;17.00;82.30;;;;;;4973250;28;20042;-69
2021/09/21 12:22:26;;;;;;;8.85;4.63;;;17.20;82.50;;;;;;4973584;28;20039;-69
2021/09/21 12:24:53;;;;;;;10.10;5.00;;;17.30;82.20;;;;;;4973308;28;20046;-69
2021/09/21 12:27:25;;;;;;;7.97;4.22;;;17.40;82.10;;;;;;4973247;28;20520;-70
2021/09/21 12:29:55;;;;;;;7.28;4.13;;;17.50;81.60;;;;;;4973525;28;20034;-68
2021/09/21 12:32:24;;;;;;;12.38;4.32;;;17.40;81.50;;;;;;4972413;28;20243;-68
2021/09/21 12:35:00;;;;;;;12.85;4.35;;;17.40;81.70;;;;;;4973310;28;20117;-69
2021/09/21 12:37:26;;;;;;;7.20;3.83;;;17.30;82.10;;;;;;4973352;28;20034;-69
2021/09/21 12:39:58;;;;;;;9.75;4.15;;;17.50;82.20;;;;;;4972981;28;20134;-68
2021/09/21 12:42:23;;;;;;;8.65;4.10;;;17.60;82.10;;;;;;4973034;28;20061;-69
2021/09/21 12:44:49;;;;;;;11.80;3.65;;;17.50;81.70;;;;;;4973349;28;20337;-68
2021/09/21 12:47:16;;;;;;;5.22;3.10;;;17.60;80.70;;;;;;4972990;28;20030;-69
2021/09/21 12:49:42;;;;;;;6.53;3.08;;;17.70;79.10;;;;;;4973128;28;20027;-68
2021/09/21 12:52:08;;;;;;;6.88;3.00;;;17.60;78.70;;;;;;4972738;28;20069;-69